createdAt,value
2023-05-06T00:02:09.259Z,75.65
2023-05-06T00:04:42.126Z,79.54
2023-05-06T00:07:15.076Z,80.30
2023-05-06T00:09:47.882Z,81.49
2023-05-06T00:12:20.681Z,77.12
2023-05-06T00:14:54.947Z,75.25
2023-05-06T00:17:27.786Z,76.58
2023-05-06T00:20:01.025Z,77.29
2023-05-06T00:22:33.911Z,83.10
2023-05-06T00:25:07.780Z,85.50
2023-05-06T00:27:40.964Z,82.70
2023-05-06T00:30:15.501Z,83.73
2023-05-06T00:32:48.423Z,83.58
2023-05-06T00:35:21.405Z,82.26
2023-05-06T00:37:58.595Z,81.77
2023-05-06T00:40:31.386Z,80.19
2023-05-06T00:43:04.470Z,81.06
2023-05-06T00:45:39.868Z,79.41
2023-05-06T00:48:13.313Z,78.14
2023-05-06T00:50:47.207Z,77.33
2023-05-06T00:53:22.075Z,82.12
2023-05-06T00:55:55.110Z,81.47
2023-05-06T00:58:28.192Z,79.69
2023-05-06T01:01:03.170Z,84.27
2023-05-06T01:03:36.182Z,86.43
2023-05-06T01:06:17.994Z,84.58
2023-05-06T01:08:58.626Z,84.30
2023-05-06T01:11:42.221Z,83.36
2023-05-06T01:14:22.971Z,86.95
2023-05-06T01:17:04.155Z,84.09
2023-05-06T01:19:42.012Z,82.68
2023-05-06T01:22:16.814Z,79.07
2023-05-06T01:24:51.007Z,80.75
2023-05-06T01:27:24.204Z,82.08
2023-05-06T01:29:57.397Z,86.44
2023-05-06T01:32:44.956Z,83.41
2023-05-06T01:35:24.590Z,83.91
2023-05-06T01:38:06.146Z,82.85
2023-05-06T01:40:43.588Z,82.75
2023-05-06T01:43:17.886Z,80.60
2023-05-06T01:45:53.391Z,81.29
2023-05-06T01:48:29.094Z,82.09
2023-05-06T01:51:02.621Z,83.73
2023-05-06T01:53:35.389Z,81.62
2023-05-06T01:56:09.595Z,83.41
2023-05-06T01:58:43.835Z,81.21
2023-05-06T02:01:16.892Z,83.80
2023-05-06T02:03:49.865Z,84.11
2023-05-06T02:06:23.210Z,85.53
2023-05-06T02:08:56.070Z,85.96
2023-05-06T02:11:32.508Z,88.96
2023-05-06T02:14:09.791Z,88.97
2023-05-06T02:16:42.859Z,88.72
2023-05-06T02:19:19.064Z,87.18
2023-05-06T02:21:51.930Z,89.06
2023-05-06T02:24:25.016Z,88.10
2023-05-06T02:26:59.317Z,86.23
2023-05-06T02:29:32.368Z,85.34
2023-05-06T02:32:06.207Z,85.55
2023-05-06T02:34:39.217Z,88.77
2023-05-06T02:37:12.020Z,89.07
2023-05-06T02:39:44.752Z,89.40
2023-05-06T02:42:18.976Z,89.91
2023-05-06T02:44:51.806Z,87.58
2023-05-06T02:47:24.706Z,88.12
2023-05-06T02:49:57.896Z,88.30
2023-05-06T02:52:30.703Z,89.23
2023-05-06T02:55:03.795Z,89.24
2023-05-06T02:57:37.965Z,86.83
2023-05-06T03:00:16.263Z,87.04
2023-05-06T03:02:49.154Z,87.61
2023-05-06T03:05:22.097Z,85.60
2023-05-06T03:07:55.236Z,87.14
2023-05-06T03:10:28.126Z,90.53
2023-05-06T03:13:04.267Z,91.93
2023-05-06T03:15:37.106Z,88.40
2023-05-06T03:18:09.989Z,86.40
2023-05-06T03:20:43.014Z,86.77
2023-05-06T03:23:16.190Z,89.33
2023-05-06T03:25:49.376Z,90.59
2023-05-06T03:28:24.778Z,88.51
2023-05-06T03:30:58.039Z,90.30
2023-05-06T03:33:31.008Z,90.33
2023-05-06T03:36:04.773Z,90.91
2023-05-06T03:38:37.875Z,89.48
2023-05-06T03:41:14.054Z,89.66
2023-05-06T03:43:48.950Z,89.88
2023-05-06T03:46:25.020Z,86.45
2023-05-06T03:48:58.229Z,90.06
2023-05-06T03:51:31.942Z,88.72
2023-05-06T03:54:05.428Z,90.72
2023-05-06T03:56:40.939Z,90.53
2023-05-06T03:59:15.863Z,89.93
2023-05-06T04:01:49.146Z,89.61
2023-05-06T04:04:22.988Z,93.30
2023-05-06T04:06:55.806Z,92.16
2023-05-06T04:09:30.205Z,92.57
2023-05-06T04:12:04.079Z,92.98
2023-05-06T04:14:38.347Z,89.91
2023-05-06T04:17:11.535Z,93.73
2023-05-06T04:19:44.384Z,95.31
2023-05-06T04:22:17.194Z,94.96
2023-05-06T04:24:50.460Z,96.52
2023-05-06T04:27:25.446Z,95.77
2023-05-06T04:29:59.435Z,94.21
2023-05-06T04:32:33.980Z,94.46
2023-05-06T04:35:09.035Z,94.17
2023-05-06T04:37:44.560Z,93.69
2023-05-06T04:40:27.671Z,94.93
2023-05-06T04:43:01.182Z,95.82
2023-05-06T04:45:37.772Z,97.23
2023-05-06T04:48:11.027Z,96.99
2023-05-06T04:50:43.845Z,96.44
2023-05-06T04:53:16.734Z,92.51
2023-05-06T04:55:49.689Z,95.21
2023-05-06T04:58:23.105Z,94.18
2023-05-06T05:00:58.195Z,96.06
2023-05-06T05:03:31.598Z,95.20
2023-05-06T05:06:04.954Z,96.50
2023-05-06T05:08:38.002Z,94.97
2023-05-06T05:11:10.821Z,94.06
2023-05-06T05:13:44.097Z,94.67
2023-05-06T05:16:18.807Z,93.98
2023-05-06T05:18:52.930Z,92.26
2023-05-06T05:21:31.606Z,93.14
2023-05-06T05:24:05.792Z,94.53
2023-05-06T05:26:39.253Z,93.01
2023-05-06T05:29:12.052Z,90.88
2023-05-06T05:31:46.767Z,91.01
2023-05-06T05:34:19.886Z,92.99
2023-05-06T05:36:53.973Z,93.35
2023-05-06T05:39:27.018Z,91.36
2023-05-06T05:41:59.829Z,90.67
2023-05-06T05:44:33.413Z,90.33
2023-05-06T05:47:07.632Z,90.97
2023-05-06T05:49:41.774Z,92.29
2023-05-06T05:52:15.672Z,93.63
2023-05-06T05:54:48.507Z,90.21
2023-05-06T05:57:21.757Z,91.40
2023-05-06T05:59:55.574Z,92.30
2023-05-06T06:02:29.868Z,90.44
2023-05-06T06:05:03.034Z,91.27
2023-05-06T06:07:36.373Z,90.75
2023-05-06T06:10:09.575Z,86.94
2023-05-06T06:12:44.084Z,91.31
2023-05-06T06:15:19.253Z,92.08
2023-05-06T06:17:55.907Z,90.62
2023-05-06T06:20:31.781Z,91.99
2023-05-06T06:23:07.771Z,90.29
2023-05-06T06:25:40.748Z,88.68
2023-05-06T06:28:13.596Z,86.35
2023-05-06T06:30:46.650Z,88.54
2023-05-06T06:33:21.082Z,89.89
2023-05-06T06:35:53.864Z,89.80
2023-05-06T06:38:26.944Z,90.30
2023-05-06T06:41:00.368Z,90.15
2023-05-06T06:43:33.364Z,90.21
2023-05-06T06:46:07.843Z,90.17
2023-05-06T06:48:42.059Z,88.24
2023-05-06T06:51:14.802Z,88.82
2023-05-06T06:53:48.979Z,86.00
2023-05-06T06:56:21.848Z,88.34
2023-05-06T06:58:54.956Z,88.71
2023-05-06T07:01:27.845Z,88.53
2023-05-06T07:04:02.388Z,86.60
2023-05-06T07:06:35.293Z,85.88
2023-05-06T07:09:08.514Z,88.87
2023-05-06T07:11:41.579Z,85.93
2023-05-06T07:14:14.532Z,85.61
2023-05-06T07:16:49.338Z,87.52
2023-05-06T07:19:25.334Z,86.89
2023-05-06T07:21:58.234Z,86.62
2023-05-06T07:24:31.105Z,83.81
2023-05-06T07:27:04.237Z,85.21
2023-05-06T07:29:37.398Z,85.27
2023-05-06T07:32:10.306Z,83.05
2023-05-06T07:34:44.658Z,82.11
2023-05-06T07:37:17.795Z,83.32
2023-05-06T07:39:51.304Z,82.46
2023-05-06T07:42:24.592Z,82.56
2023-05-06T07:44:57.443Z,81.97
2023-05-06T07:47:32.638Z,82.06
2023-05-06T07:50:08.835Z,79.76
2023-05-06T07:52:41.852Z,81.14
2023-05-06T07:55:14.702Z,79.94
2023-05-06T07:57:47.861Z,80.45
2023-05-06T08:00:22.280Z,82.09
2023-05-06T08:02:55.887Z,79.75
2023-05-06T08:05:30.365Z,80.09
2023-05-06T08:08:03.394Z,77.66
2023-05-06T08:10:36.226Z,77.52
2023-05-06T08:13:09.082Z,76.42
2023-05-06T08:15:42.066Z,77.24
2023-05-06T08:18:22.406Z,74.57
2023-05-06T08:20:57.232Z,76.21
2023-05-06T08:23:30.527Z,74.60
2023-05-06T08:26:03.352Z,74.82
2023-05-06T08:28:36.431Z,72.75
2023-05-06T08:31:09.237Z,75.01
2023-05-06T08:33:42.039Z,71.91
2023-05-06T08:36:16.198Z,71.74
2023-05-06T08:38:51.450Z,71.25
2023-05-06T08:41:27.660Z,71.11
2023-05-06T08:44:03.808Z,69.19
2023-05-06T08:46:36.845Z,68.71
2023-05-06T08:49:10.917Z,69.02
2023-05-06T08:51:46.517Z,68.72
2023-05-06T08:54:19.717Z,67.83
2023-05-06T08:56:54.680Z,64.66
2023-05-06T08:59:30.730Z,65.59
2023-05-06T09:02:04.249Z,66.67
2023-05-06T09:04:38.187Z,64.28
2023-05-06T09:07:13.013Z,63.62
2023-05-06T09:09:45.913Z,63.38
2023-05-06T09:12:18.684Z,62.70
2023-05-06T09:14:51.997Z,61.22
2023-05-06T09:17:26.686Z,60.96
2023-05-06T09:19:59.984Z,60.36
2023-05-06T09:22:34.122Z,60.40
2023-05-06T09:25:08.373Z,61.21
2023-05-06T09:27:41.655Z,58.69
2023-05-06T09:30:15.415Z,58.11
2023-05-06T09:32:49.682Z,57.37
2023-05-06T09:35:28.182Z,59.30
2023-05-06T09:38:02.468Z,61.79
2023-05-06T09:40:36.224Z,61.51
2023-05-06T09:43:10.536Z,60.38
2023-05-06T09:45:44.530Z,61.08
2023-05-06T09:48:17.387Z,59.71
2023-05-06T09:50:50.505Z,60.17
2023-05-06T09:53:25.172Z,60.29
2023-05-06T09:56:00.404Z,59.20
2023-05-06T09:58:34.779Z,55.97
2023-05-06T10:01:08.194Z,54.30
2023-05-06T10:03:43.027Z,53.24
2023-05-06T10:06:16.266Z,53.46
2023-05-06T10:08:51.116Z,54.62
2023-05-06T10:11:24.311Z,56.46
2023-05-06T10:13:57.679Z,56.27
2023-05-06T10:16:31.820Z,57.55
2023-05-06T10:19:05.900Z,56.19
2023-05-06T10:21:42.377Z,53.42
2023-05-06T10:24:19.451Z,54.79
2023-05-06T10:26:55.932Z,54.42
2023-05-06T10:29:28.747Z,52.00
2023-05-06T10:32:04.270Z,53.00
2023-05-06T10:34:42.569Z,51.54
2023-05-06T10:37:16.959Z,51.26
2023-05-06T10:39:51.303Z,51.41
2023-05-06T10:42:27.844Z,50.20
2023-05-06T10:45:03.182Z,49.17
2023-05-06T10:48:10.035Z,48.94
2023-05-06T10:50:45.699Z,46.44
2023-05-06T10:54:03.728Z,47.57
2023-05-06T10:56:39.667Z,47.82
2023-05-06T10:59:13.828Z,49.62
2023-05-06T11:01:55.902Z,49.87
2023-05-06T11:04:30.280Z,49.52
2023-05-06T11:07:09.316Z,50.13
2023-05-06T11:09:55.637Z,50.12
2023-05-06T11:12:48.848Z,48.45
2023-05-06T11:15:25.910Z,50.35
2023-05-06T11:17:58.791Z,47.60
2023-05-06T11:20:31.676Z,51.17
2023-05-06T11:23:04.868Z,47.96
2023-05-06T11:25:42.040Z,47.81
2023-05-06T11:28:16.295Z,47.18
2023-05-06T11:30:55.150Z,44.42
2023-05-06T11:33:34.093Z,46.92
2023-05-06T11:36:08.035Z,47.36
2023-05-06T11:38:43.184Z,48.12
2023-05-06T11:41:16.639Z,48.70
2023-05-06T11:43:52.131Z,47.22
2023-05-06T11:46:25.373Z,48.11
2023-05-06T11:48:58.247Z,46.72
2023-05-06T11:51:32.463Z,48.03
2023-05-06T11:54:06.887Z,46.62
2023-05-06T11:56:47.893Z,48.62
2023-05-06T11:59:30.157Z,48.38
2023-05-06T12:02:05.657Z,48.78
2023-05-06T12:04:39.928Z,50.02
2023-05-06T12:07:13.209Z,48.85
2023-05-06T12:09:48.387Z,47.58
2023-05-06T12:12:23.977Z,45.78
2023-05-06T12:14:59.365Z,43.82
2023-05-06T12:17:32.411Z,43.87
2023-05-06T12:20:06.237Z,44.30
2023-05-06T12:22:40.358Z,41.96
2023-05-06T12:25:16.951Z,42.55
2023-05-06T12:27:49.836Z,44.42
2023-05-06T12:30:32.322Z,43.28
2023-05-06T12:33:05.224Z,43.83
2023-05-06T12:35:38.949Z,44.66
2023-05-06T12:38:13.831Z,43.75
2023-05-06T12:40:54.668Z,40.34
2023-05-06T12:43:32.171Z,40.55
2023-05-06T12:46:07.743Z,40.50
2023-05-06T12:48:40.616Z,41.68
2023-05-06T12:51:21.556Z,40.23
2023-05-06T12:53:54.777Z,39.51
2023-05-06T12:56:27.613Z,40.09
2023-05-06T12:59:01.480Z,39.11
2023-05-06T13:01:35.811Z,41.99
2023-05-06T13:04:08.700Z,39.21
2023-05-06T13:06:41.558Z,38.23
2023-05-06T13:09:15.390Z,40.24
2023-05-06T13:11:48.414Z,38.06
2023-05-06T13:14:21.993Z,38.47
2023-05-06T13:16:56.309Z,39.24
2023-05-06T13:19:32.939Z,38.96
2023-05-06T13:22:06.660Z,39.35
2023-05-06T13:24:39.406Z,36.41
2023-05-06T13:27:13.056Z,37.45
2023-05-06T13:29:45.954Z,36.36
2023-05-06T13:32:20.833Z,37.09
2023-05-06T13:34:53.682Z,36.70
2023-05-06T13:37:26.622Z,37.28
2023-05-06T13:39:59.444Z,36.24
2023-05-06T13:42:32.303Z,36.72
2023-05-06T13:45:05.849Z,38.39
2023-05-06T13:47:40.148Z,39.11
2023-05-06T13:50:13.089Z,36.80
2023-05-06T13:52:46.234Z,41.31
2023-05-06T13:55:19.507Z,35.53
2023-05-06T13:57:52.477Z,35.65
2023-05-06T14:00:25.505Z,34.88
2023-05-06T14:02:59.788Z,37.41
2023-05-06T14:05:33.393Z,34.91
2023-05-06T14:08:08.174Z,35.10
2023-05-06T14:10:41.053Z,36.49
2023-05-06T14:13:14.002Z,35.27
2023-05-06T14:15:47.003Z,34.74
2023-05-06T14:18:21.444Z,34.91
2023-05-06T14:20:54.497Z,41.30
2023-05-06T14:23:27.385Z,37.91
2023-05-06T14:26:00.259Z,37.24
2023-05-06T14:28:33.037Z,37.15
2023-05-06T14:31:06.401Z,37.57
2023-05-06T14:33:40.668Z,34.96
2023-05-06T14:36:19.200Z,34.70
2023-05-06T14:38:51.992Z,37.22
2023-05-06T14:41:25.405Z,36.92
2023-05-06T14:43:58.307Z,37.12
2023-05-06T14:46:31.377Z,37.02
2023-05-06T14:49:06.032Z,35.40
2023-05-06T14:51:38.857Z,35.39
2023-05-06T14:54:14.769Z,36.29
2023-05-06T14:56:49.317Z,34.66
2023-05-06T14:59:22.568Z,34.95
2023-05-06T15:01:56.833Z,34.01
2023-05-06T15:04:31.057Z,35.80
2023-05-06T15:07:03.912Z,36.14
2023-05-06T15:09:39.449Z,37.41
2023-05-06T15:12:12.714Z,36.76
2023-05-06T15:14:45.529Z,35.35
2023-05-06T15:17:18.670Z,35.35
2023-05-06T15:19:53.138Z,39.76
2023-05-06T15:22:26.096Z,39.31
2023-05-06T15:24:58.911Z,37.08
2023-05-06T15:27:32.765Z,38.64
2023-05-06T15:30:06.747Z,37.04
2023-05-06T15:32:39.907Z,37.04
2023-05-06T15:35:14.096Z,37.22
2023-05-06T15:37:46.946Z,35.76
2023-05-06T15:40:21.403Z,38.66
2023-05-06T15:42:54.238Z,39.18
2023-05-06T15:45:27.153Z,38.99
2023-05-06T15:48:00.065Z,37.88
2023-05-06T15:50:34.532Z,38.33
2023-05-06T15:53:07.465Z,37.58
2023-05-06T15:55:44.490Z,37.11
2023-05-06T15:58:22.445Z,37.71
2023-05-06T16:00:55.270Z,39.73
2023-05-06T16:03:28.383Z,39.19
2023-05-06T16:06:03.140Z,38.52
2023-05-06T16:08:36.047Z,38.65
2023-05-06T16:11:09.372Z,41.62
2023-05-06T16:13:43.309Z,39.49
2023-05-06T16:16:16.153Z,39.24
2023-05-06T16:18:49.290Z,41.33
2023-05-06T16:21:23.635Z,41.13
2023-05-06T16:23:56.440Z,40.37
2023-05-06T16:26:29.461Z,40.69
2023-05-06T16:29:02.247Z,41.31
2023-05-06T16:31:35.525Z,42.26
2023-05-06T16:34:08.358Z,43.91
2023-05-06T16:36:43.505Z,42.18
2023-05-06T16:39:16.327Z,43.95
2023-05-06T16:41:49.190Z,42.54
2023-05-06T16:44:22.029Z,43.53
2023-05-06T16:46:55.027Z,43.52
2023-05-06T16:49:28.634Z,43.38
2023-05-06T16:52:03.480Z,45.82
2023-05-06T16:54:36.328Z,44.29
2023-05-06T16:57:09.150Z,45.88
2023-05-06T16:59:41.971Z,45.61
2023-05-06T17:02:15.007Z,44.57
2023-05-06T17:04:47.979Z,44.36
2023-05-06T17:07:22.121Z,46.24
2023-05-06T17:09:55.086Z,47.97
2023-05-06T17:12:28.007Z,53.29
2023-05-06T17:15:00.862Z,57.85
2023-05-06T17:17:34.762Z,58.11
2023-05-06T17:20:09.471Z,61.59
2023-05-06T17:22:43.911Z,65.33
2023-05-06T17:25:16.544Z,70.29
2023-05-06T17:27:49.365Z,71.13
2023-05-06T17:30:22.660Z,72.29
2023-05-06T17:32:56.145Z,74.44
2023-05-06T17:35:28.966Z,77.75
2023-05-06T17:38:03.120Z,75.63
2023-05-06T17:40:38.324Z,78.38
2023-05-06T17:43:11.122Z,76.54
2023-05-06T17:45:44.068Z,73.88
2023-05-06T17:48:16.933Z,74.61
2023-05-06T17:50:49.746Z,74.20
2023-05-06T17:53:23.907Z,75.61
2023-05-06T17:55:56.931Z,73.61
2023-05-06T17:58:29.908Z,73.52
2023-05-06T18:01:02.875Z,72.74
2023-05-06T18:03:35.888Z,73.87
2023-05-06T18:06:12.537Z,74.04
2023-05-06T18:08:46.947Z,72.66
2023-05-06T18:11:19.925Z,72.57
2023-05-06T18:13:52.868Z,73.03
2023-05-06T18:16:26.009Z,69.85
2023-05-06T18:19:00.676Z,70.79
2023-05-06T18:21:34.472Z,72.60
2023-05-06T18:24:15.879Z,72.83
2023-05-06T18:26:49.510Z,71.21
2023-05-06T18:29:22.621Z,74.79
2023-05-06T18:31:55.504Z,74.01
2023-05-06T18:34:28.496Z,74.84
2023-05-06T18:37:02.894Z,74.56
2023-05-06T18:39:46.999Z,74.99
2023-05-06T18:42:19.930Z,76.35
2023-05-06T18:44:52.943Z,77.32
2023-05-06T18:47:26.298Z,77.17
2023-05-06T18:50:00.539Z,79.26
2023-05-06T18:52:35.840Z,77.87
2023-05-06T18:55:10.505Z,79.91
2023-05-06T18:57:43.445Z,77.68
2023-05-06T19:00:16.759Z,79.36
2023-05-06T19:02:49.871Z,80.54
2023-05-06T19:05:23.291Z,80.38
2023-05-06T19:07:56.097Z,80.59
2023-05-06T19:10:30.672Z,81.95
2023-05-06T19:13:04.930Z,81.30
2023-05-06T19:15:37.803Z,79.68
2023-05-06T19:18:12.100Z,82.73
2023-05-06T19:20:45.082Z,78.64
2023-05-06T19:23:17.922Z,78.99
2023-05-06T19:25:52.092Z,77.89
2023-05-06T19:28:24.896Z,75.83
2023-05-06T19:30:57.822Z,80.44
2023-05-06T19:33:30.658Z,79.30
2023-05-06T19:36:03.874Z,79.29
2023-05-06T19:38:36.649Z,79.75
2023-05-06T19:41:10.936Z,77.83
2023-05-06T19:43:44.599Z,75.72
2023-05-06T19:46:17.684Z,80.53
2023-05-06T19:48:50.604Z,78.45
2023-05-06T19:51:23.362Z,79.95
2023-05-06T19:53:56.209Z,81.86
2023-05-06T19:56:30.326Z,79.73
2023-05-06T19:59:03.508Z,76.13
2023-05-06T20:01:36.305Z,75.92
2023-05-06T20:04:09.877Z,75.60
2023-05-06T20:06:42.710Z,77.19
2023-05-06T20:09:15.624Z,77.68
2023-05-06T20:11:49.918Z,76.18
2023-05-06T20:14:22.992Z,80.86
2023-05-06T20:16:57.564Z,83.90
2023-05-06T20:19:31.086Z,84.62
2023-05-06T20:22:03.911Z,84.42
2023-05-06T20:24:38.495Z,83.88
2023-05-06T20:27:12.471Z,81.55
2023-05-06T20:29:45.432Z,81.34
2023-05-06T20:32:18.272Z,78.98
2023-05-06T20:34:51.264Z,82.33
2023-05-06T20:37:24.060Z,79.47
2023-05-06T20:39:56.967Z,78.31
2023-05-06T20:42:31.277Z,76.88
2023-05-06T20:45:06.802Z,81.77
2023-05-06T20:47:39.947Z,82.17
2023-05-06T20:50:16.870Z,77.84
2023-05-06T20:52:50.586Z,80.36
2023-05-06T20:55:24.520Z,81.14
2023-05-06T20:57:58.784Z,81.37
2023-05-06T21:00:31.597Z,82.24
2023-05-06T21:03:04.927Z,81.84
2023-05-06T21:05:37.816Z,82.13
2023-05-06T21:08:11.111Z,80.46
2023-05-06T21:10:43.885Z,82.17
2023-05-06T21:13:18.118Z,82.57
2023-05-06T21:15:50.946Z,83.21
2023-05-06T21:18:24.001Z,80.73
2023-05-06T21:20:56.966Z,80.87
2023-05-06T21:23:29.766Z,82.67
2023-05-06T21:26:04.976Z,84.65
2023-05-06T21:28:39.236Z,79.96
2023-05-06T21:31:12.093Z,84.16
2023-05-06T21:33:44.914Z,85.42
2023-05-06T21:36:17.795Z,83.47
2023-05-06T21:39:00.392Z,84.91
2023-05-06T21:41:35.275Z,81.96
2023-05-06T21:44:10.231Z,85.28
2023-05-06T21:46:43.341Z,85.79
2023-05-06T21:49:16.272Z,83.24
2023-05-06T21:51:49.174Z,81.04
2023-05-06T21:54:24.050Z,83.64
2023-05-06T21:56:56.776Z,80.89
2023-05-06T21:59:31.053Z,84.52
2023-05-06T22:02:03.970Z,81.72
2023-05-06T22:04:36.860Z,84.77
2023-05-06T22:07:09.602Z,80.00
2023-05-06T22:09:42.392Z,84.34
2023-05-06T22:12:15.407Z,84.52
2023-05-06T22:14:49.551Z,82.45
2023-05-06T22:17:22.452Z,84.96
2023-05-06T22:19:55.938Z,84.32
2023-05-06T22:22:28.959Z,83.37
2023-05-06T22:25:01.727Z,85.43
2023-05-06T22:27:34.640Z,85.55
2023-05-06T22:30:10.479Z,86.39
2023-05-06T22:32:43.419Z,81.95
2023-05-06T22:35:16.767Z,82.09
2023-05-06T22:37:49.696Z,86.81
2023-05-06T22:40:22.626Z,84.64
2023-05-06T22:42:55.410Z,82.77
2023-05-06T22:45:29.573Z,86.20
2023-05-06T22:48:02.586Z,83.67
2023-05-06T22:50:36.268Z,81.66
2023-05-06T22:53:15.062Z,83.99
2023-05-06T22:55:48.629Z,84.13
2023-05-06T22:58:21.462Z,84.35
2023-05-06T23:00:55.908Z,83.45
2023-05-06T23:03:29.036Z,84.84
2023-05-06T23:06:03.008Z,83.80
2023-05-06T23:08:35.773Z,84.28
2023-05-06T23:11:08.532Z,82.93
2023-05-06T23:13:41.696Z,82.77
2023-05-06T23:16:16.531Z,87.57
2023-05-06T23:18:49.728Z,89.57
2023-05-06T23:21:22.579Z,90.59
2023-05-06T23:23:55.496Z,89.97
2023-05-06T23:26:28.283Z,88.44
2023-05-06T23:29:01.276Z,87.31
2023-05-06T23:31:35.506Z,87.65
2023-05-06T23:34:08.301Z,88.73
2023-05-06T23:36:41.132Z,89.89
2023-05-06T23:39:13.881Z,90.97
2023-05-06T23:41:46.704Z,88.44
2023-05-06T23:44:20.015Z,88.60
2023-05-06T23:46:54.310Z,92.46
2023-05-06T23:49:27.828Z,93.60
2023-05-06T23:52:00.707Z,93.77
2023-05-06T23:54:33.570Z,93.00
2023-05-06T23:57:06.439Z,89.87
2023-05-06T23:59:39.351Z,87.04
